createdAt,value
2023-02-13T00:00:34.302Z,9.63
2023-02-13T00:03:01.331Z,9.27
2023-02-13T00:05:28.235Z,10.50
2023-02-13T00:07:55.153Z,8.90
2023-02-13T00:10:22.079Z,10.47
2023-02-13T00:12:49.019Z,13.67
2023-02-13T00:15:16.012Z,9.33
2023-02-13T00:17:42.932Z,8.47
2023-02-13T00:20:11.733Z,10.57
2023-02-13T00:22:39.359Z,12.47
2023-02-13T00:25:07.708Z,16.77
2023-02-13T00:27:34.818Z,10.00
2023-02-13T00:30:02.445Z,9.40
2023-02-13T00:32:29.408Z,10.97
2023-02-13T00:34:56.531Z,9.60
2023-02-13T00:37:24.105Z,10.43
2023-02-13T00:39:51.016Z,10.57
2023-02-13T00:42:17.936Z,9.47
2023-02-13T00:44:44.867Z,9.27
2023-02-13T00:47:14.641Z,10.10
2023-02-13T00:49:41.808Z,9.10
2023-02-13T00:52:08.760Z,11.03
2023-02-13T00:54:35.888Z,11.57
2023-02-13T00:57:03.049Z,10.43
2023-02-13T00:59:29.957Z,10.17
2023-02-13T01:01:56.969Z,8.53
2023-02-13T01:04:23.933Z,13.80
2023-02-13T01:06:50.900Z,11.80
2023-02-13T01:09:17.824Z,9.63
2023-02-13T01:11:44.731Z,12.53
2023-02-13T01:14:11.748Z,12.80
2023-02-13T01:16:38.916Z,12.83
2023-02-13T01:19:06.079Z,11.43
2023-02-13T01:21:33.020Z,13.33
2023-02-13T01:24:03.893Z,11.97
2023-02-13T01:26:30.829Z,12.50
2023-02-13T01:28:58.083Z,10.77
2023-02-13T01:31:25.789Z,11.93
2023-02-13T01:33:55.723Z,10.63
2023-02-13T01:36:22.716Z,9.93
2023-02-13T01:38:53.262Z,14.53
2023-02-13T01:41:20.364Z,11.57
2023-02-13T01:43:50.700Z,12.20
2023-02-13T01:46:23.133Z,11.47
2023-02-13T01:48:52.902Z,11.23
2023-02-13T01:51:26.254Z,13.20
2023-02-13T01:54:00.044Z,10.80
2023-02-13T01:56:33.125Z,9.83
2023-02-13T01:59:02.851Z,9.60
2023-02-13T02:01:31.724Z,11.37
2023-02-13T02:04:12.185Z,14.00
2023-02-13T02:06:45.874Z,16.53
2023-02-13T02:09:23.534Z,12.87
2023-02-13T02:11:58.293Z,12.13
2023-02-13T02:14:26.586Z,10.30
2023-02-13T02:16:53.945Z,10.57
2023-02-13T02:19:42.361Z,12.80
2023-02-13T02:22:31.158Z,9.53
2023-02-13T02:25:10.016Z,10.77
2023-02-13T02:28:04.694Z,15.90
2023-02-13T02:30:58.556Z,10.83
2023-02-13T02:33:52.733Z,10.13
2023-02-13T02:36:47.765Z,12.23
2023-02-13T02:39:41.955Z,14.40
2023-02-13T02:42:42.715Z,10.70
2023-02-13T02:45:16.961Z,13.33
2023-02-13T02:48:25.711Z,13.17
2023-02-13T02:51:12.156Z,12.93
2023-02-13T02:53:48.888Z,10.97
2023-02-13T02:56:23.118Z,11.87
2023-02-13T02:59:22.275Z,14.33
2023-02-13T03:02:08.909Z,11.97
2023-02-13T03:05:00.752Z,13.20
2023-02-13T03:07:27.784Z,11.97
2023-02-13T03:10:22.506Z,10.97
2023-02-13T03:13:14.323Z,11.27
2023-02-13T03:16:03.908Z,16.77
2023-02-13T03:18:57.481Z,11.80
2023-02-13T03:22:01.161Z,10.90
2023-02-13T03:24:33.317Z,10.70
2023-02-13T03:27:14.964Z,10.03
2023-02-13T03:30:08.809Z,10.50
2023-02-13T03:32:45.354Z,9.67
2023-02-13T03:35:40.054Z,10.27
2023-02-13T03:38:29.855Z,9.10
2023-02-13T03:41:20.373Z,8.27
2023-02-13T03:44:11.270Z,7.80
2023-02-13T03:46:43.231Z,6.80
2023-02-13T03:49:36.068Z,6.53
2023-02-13T03:52:09.371Z,6.00
2023-02-13T03:55:01.094Z,5.23
2023-02-13T03:57:50.417Z,5.70
2023-02-13T04:00:19.806Z,5.00
2023-02-13T04:03:10.939Z,5.37
2023-02-13T04:05:44.347Z,4.50
2023-02-13T04:08:11.808Z,5.03
2023-02-13T04:10:50.225Z,3.97
2023-02-13T04:13:33.302Z,4.47
2023-02-13T04:16:11.705Z,7.20
2023-02-13T04:18:39.702Z,5.27
2023-02-13T04:21:07.744Z,4.07
2023-02-13T04:23:36.929Z,6.73
2023-02-13T04:26:08.008Z,3.20
2023-02-13T04:28:35.005Z,4.07
2023-02-13T04:31:02.477Z,3.20
2023-02-13T04:33:30.707Z,4.17
2023-02-13T04:35:57.898Z,3.93
2023-02-13T04:38:24.843Z,3.40
2023-02-13T04:40:51.750Z,2.70
2023-02-13T04:43:18.762Z,7.70
2023-02-13T04:45:49.188Z,2.80
2023-02-13T04:48:16.160Z,2.97
2023-02-13T04:50:43.108Z,4.30
2023-02-13T04:53:09.992Z,7.93
2023-02-13T04:55:37.789Z,5.70
2023-02-13T04:58:04.686Z,9.47
2023-02-13T05:00:31.674Z,6.57
2023-02-13T05:03:08.411Z,26.33
2023-02-13T05:05:35.953Z,7.53
2023-02-13T05:08:03.443Z,5.67
2023-02-13T05:10:31.214Z,4.13
2023-02-13T05:12:58.386Z,10.10
2023-02-13T05:15:25.545Z,4.77
2023-02-13T05:17:52.515Z,5.03
2023-02-13T05:20:19.671Z,36.80
2023-02-13T05:23:07.217Z,3.93
2023-02-13T05:25:35.453Z,5.20
2023-02-13T05:28:03.209Z,4.70
2023-02-13T05:30:30.438Z,7.40
2023-02-13T05:32:57.363Z,5.03
2023-02-13T05:35:25.559Z,3.43
2023-02-13T05:37:52.658Z,5.23
2023-02-13T05:40:20.808Z,3.20
2023-02-13T05:42:48.722Z,3.50
2023-02-13T05:45:16.133Z,3.33
2023-02-13T05:47:43.122Z,3.40
2023-02-13T05:50:10.310Z,3.43
2023-02-13T05:52:37.213Z,5.00
2023-02-13T05:55:04.274Z,3.27
2023-02-13T05:57:31.606Z,2.83
2023-02-13T05:59:59.403Z,2.87
2023-02-13T06:02:26.365Z,2.47
2023-02-13T06:04:53.340Z,2.80
2023-02-13T06:07:20.255Z,2.30
2023-02-13T06:09:47.124Z,2.53
2023-02-13T06:12:14.102Z,2.30
2023-02-13T06:14:41.085Z,2.30
2023-02-13T06:17:07.982Z,2.67
2023-02-13T06:19:37.873Z,2.40
2023-02-13T06:22:04.758Z,3.00
2023-02-13T06:24:31.738Z,3.03
2023-02-13T06:26:58.978Z,2.70
2023-02-13T06:29:25.886Z,2.47
2023-02-13T06:31:52.824Z,3.37
2023-02-13T06:34:20.979Z,2.87
2023-02-13T06:36:47.965Z,3.20
2023-02-13T06:39:14.860Z,3.37
2023-02-13T06:41:42.627Z,3.50
2023-02-13T06:44:09.800Z,3.30
2023-02-13T06:46:36.759Z,3.70
2023-02-13T06:49:03.924Z,3.20
2023-02-13T06:51:30.908Z,3.30
2023-02-13T06:53:57.799Z,2.93
2023-02-13T06:56:26.407Z,3.60
2023-02-13T06:58:53.400Z,3.37
2023-02-13T07:01:20.409Z,3.07
2023-02-13T07:03:48.664Z,2.87
2023-02-13T07:06:21.865Z,3.23
2023-02-13T07:08:51.402Z,3.03
2023-02-13T07:11:19.913Z,2.83
2023-02-13T07:13:46.917Z,2.80
2023-02-13T07:16:14.319Z,3.00
2023-02-13T07:18:41.486Z,2.60
2023-02-13T07:21:08.736Z,3.60
2023-02-13T07:23:35.679Z,2.83
2023-02-13T07:26:02.896Z,2.90
2023-02-13T07:28:29.918Z,2.67
2023-02-13T07:30:57.575Z,3.60
2023-02-13T07:33:25.000Z,3.53
2023-02-13T07:35:52.513Z,3.27
2023-02-13T07:38:19.848Z,3.13
2023-02-13T07:40:48.888Z,3.00
2023-02-13T07:43:15.935Z,3.30
2023-02-13T07:45:42.935Z,3.40
2023-02-13T07:48:09.967Z,3.17
2023-02-13T07:50:36.925Z,2.77
2023-02-13T07:53:03.871Z,4.47
2023-02-13T07:55:31.384Z,3.40
2023-02-13T07:58:00.605Z,4.80
2023-02-13T08:00:27.534Z,3.17
2023-02-13T08:02:56.790Z,3.07
2023-02-13T08:05:23.933Z,3.33
2023-02-13T08:07:50.846Z,3.47
2023-02-13T08:10:36.770Z,3.23
2023-02-13T08:13:04.468Z,3.73
2023-02-13T08:15:31.388Z,3.20
2023-02-13T08:18:02.810Z,3.30
2023-02-13T08:20:29.846Z,4.23
2023-02-13T08:23:06.220Z,3.47
2023-02-13T08:25:33.709Z,2.80
2023-02-13T08:28:01.262Z,2.90
2023-02-13T08:30:28.890Z,3.30
2023-02-13T08:32:55.886Z,3.10
2023-02-13T08:35:26.772Z,3.50
2023-02-13T08:37:54.096Z,3.63
2023-02-13T08:40:23.433Z,3.37
2023-02-13T08:42:54.071Z,3.10
2023-02-13T08:45:21.209Z,3.80
2023-02-13T08:47:48.078Z,4.10
2023-02-13T08:50:16.007Z,3.30
2023-02-13T08:52:42.951Z,3.37
2023-02-13T08:55:09.830Z,3.40
2023-02-13T08:57:36.778Z,3.37
2023-02-13T09:00:04.390Z,3.43
2023-02-13T09:02:31.396Z,3.40
2023-02-13T09:04:58.374Z,4.00
2023-02-13T09:07:25.461Z,4.67
2023-02-13T09:09:52.396Z,6.00
2023-02-13T09:12:19.312Z,4.23
2023-02-13T09:14:47.699Z,3.77
2023-02-13T09:17:18.253Z,4.47
2023-02-13T09:19:46.963Z,3.93
2023-02-13T09:22:15.416Z,4.70
2023-02-13T09:24:42.621Z,4.40
2023-02-13T09:27:09.845Z,3.67
2023-02-13T09:29:36.818Z,3.73
2023-02-13T09:32:05.129Z,3.27
2023-02-13T09:34:32.245Z,3.10
2023-02-13T09:36:59.152Z,3.10
2023-02-13T09:39:26.074Z,3.00
2023-02-13T09:41:55.527Z,3.07
2023-02-13T09:44:42.076Z,3.23
2023-02-13T09:47:28.416Z,3.40
2023-02-13T09:50:11.709Z,3.90
2023-02-13T09:52:39.907Z,4.00
2023-02-13T09:55:37.471Z,4.23
2023-02-13T09:58:22.234Z,3.27
2023-02-13T10:00:54.084Z,3.70
2023-02-13T10:03:44.607Z,3.47
2023-02-13T10:06:36.517Z,3.13
2023-02-13T10:09:36.149Z,3.60
2023-02-13T10:12:12.006Z,3.40
2023-02-13T10:15:11.657Z,3.70
2023-02-13T10:17:42.981Z,3.17
2023-02-13T10:20:31.253Z,3.30
2023-02-13T10:23:12.402Z,3.40
2023-02-13T10:25:52.399Z,3.63
2023-02-13T10:28:30.192Z,3.30
2023-02-13T10:31:06.315Z,3.50
2023-02-13T10:33:46.988Z,2.73
2023-02-13T10:36:22.290Z,3.30
2023-02-13T10:39:00.779Z,3.10
2023-02-13T10:41:46.676Z,3.57
2023-02-13T10:44:41.398Z,3.23
2023-02-13T10:47:20.507Z,3.17
2023-02-13T10:50:01.477Z,3.70
2023-02-13T10:52:44.496Z,3.77
2023-02-13T10:55:39.913Z,4.07
2023-02-13T10:58:12.740Z,4.13
2023-02-13T11:01:07.529Z,4.07
2023-02-13T11:03:34.423Z,3.90
2023-02-13T11:06:07.316Z,3.73
2023-02-13T11:08:35.644Z,3.60
2023-02-13T11:11:02.545Z,3.40
2023-02-13T11:13:30.498Z,3.63
2023-02-13T11:16:02.758Z,4.67
2023-02-13T11:18:34.371Z,3.57
2023-02-13T11:21:09.073Z,3.83
2023-02-13T11:23:56.775Z,3.57
2023-02-13T11:26:29.176Z,4.20
2023-02-13T11:28:58.295Z,4.07
2023-02-13T11:31:29.511Z,4.03
2023-02-13T11:33:59.133Z,3.87
2023-02-13T11:36:27.906Z,4.10
2023-02-13T11:39:02.191Z,3.77
2023-02-13T11:41:30.635Z,3.70
2023-02-13T11:44:04.271Z,3.80
2023-02-13T11:46:46.057Z,4.10
2023-02-13T11:49:20.548Z,4.30
2023-02-13T11:51:50.047Z,4.40
2023-02-13T11:54:34.294Z,4.37
2023-02-13T11:57:23.060Z,4.47
2023-02-13T11:59:59.825Z,4.13
2023-02-13T12:02:50.024Z,4.50
2023-02-13T12:05:25.897Z,4.27
2023-02-13T12:08:04.540Z,4.83
2023-02-13T12:10:37.699Z,4.70
2023-02-13T12:13:12.784Z,10.07
2023-02-13T12:15:40.402Z,6.17
2023-02-13T12:18:34.485Z,4.70
2023-02-13T12:21:24.469Z,5.17
2023-02-13T12:24:04.162Z,4.83
2023-02-13T12:26:40.499Z,5.20
2023-02-13T12:29:17.032Z,4.80
2023-02-13T12:32:28.735Z,5.07
2023-02-13T12:35:17.541Z,6.67
2023-02-13T12:37:57.540Z,5.23
2023-02-13T12:40:50.204Z,7.73
2023-02-13T12:43:27.285Z,5.13
2023-02-13T12:46:09.325Z,4.80
2023-02-13T12:49:06.958Z,5.37
2023-02-13T12:52:12.632Z,5.37
2023-02-13T12:54:57.306Z,5.97
2023-02-13T12:57:54.898Z,4.80
2023-02-13T13:00:37.391Z,4.67
2023-02-13T13:03:32.370Z,4.70
2023-02-13T13:06:12.357Z,5.00
2023-02-13T13:08:54.349Z,4.53
2023-02-13T13:11:39.940Z,5.20
2023-02-13T13:14:49.672Z,4.83
2023-02-13T13:17:44.830Z,4.90
2023-02-13T13:20:14.378Z,5.43
2023-02-13T13:22:55.332Z,5.13
2023-02-13T13:25:34.795Z,5.10
2023-02-13T13:28:07.960Z,4.73
2023-02-13T13:30:37.713Z,4.90
2023-02-13T13:33:13.821Z,5.77
2023-02-13T13:35:45.064Z,5.00
2023-02-13T13:38:25.374Z,5.37
2023-02-13T13:41:23.636Z,5.20
2023-02-13T13:44:15.081Z,5.30
2023-02-13T13:47:00.931Z,4.80
2023-02-13T13:49:53.795Z,5.10
2023-02-13T13:52:29.111Z,5.00
2023-02-13T13:55:00.355Z,4.97
2023-02-13T13:57:48.249Z,10.00
2023-02-13T14:00:16.797Z,5.50
2023-02-13T14:02:45.862Z,5.70
2023-02-13T14:05:24.476Z,5.47
2023-02-13T14:07:59.541Z,5.53
2023-02-13T14:10:26.383Z,5.30
2023-02-13T14:12:55.995Z,4.93
2023-02-13T14:15:38.097Z,5.13
2023-02-13T14:18:13.749Z,4.90
2023-02-13T14:20:44.246Z,5.20
2023-02-13T14:23:34.540Z,4.93
2023-02-13T14:26:19.671Z,4.93
2023-02-13T14:28:49.571Z,4.27
2023-02-13T14:31:22.437Z,4.90
2023-02-13T14:34:10.540Z,5.37
2023-02-13T14:36:47.210Z,5.07
2023-02-13T14:39:28.770Z,5.07
2023-02-13T14:41:55.678Z,4.40
2023-02-13T14:44:34.226Z,5.03
2023-02-13T14:47:05.640Z,4.53
2023-02-13T14:49:39.967Z,7.47
2023-02-13T14:52:30.634Z,5.13
2023-02-13T14:55:08.825Z,5.10
2023-02-13T14:57:42.580Z,5.13
2023-02-13T15:00:48.404Z,12.27
2023-02-13T15:03:24.494Z,5.00
2023-02-13T15:05:54.624Z,5.30
2023-02-13T15:08:27.116Z,5.07
2023-02-13T15:10:56.161Z,4.87
2023-02-13T15:13:29.419Z,5.17
2023-02-13T15:16:01.212Z,4.90
2023-02-13T15:18:31.849Z,4.90
2023-02-13T15:21:01.174Z,4.87
2023-02-13T15:23:31.278Z,5.13
2023-02-13T15:26:01.430Z,5.37
2023-02-13T15:28:28.799Z,7.40
2023-02-13T15:30:59.429Z,4.80
2023-02-13T15:33:45.774Z,5.83
2023-02-13T15:36:21.310Z,6.50
2023-02-13T15:38:48.400Z,9.93
2023-02-13T15:41:32.856Z,6.87
2023-02-13T15:44:00.552Z,6.30
2023-02-13T15:46:36.394Z,6.73
2023-02-13T15:49:10.492Z,5.43
2023-02-13T15:51:37.393Z,6.50
2023-02-13T15:54:26.223Z,6.63
2023-02-13T15:56:56.311Z,6.37
2023-02-13T15:59:26.223Z,6.37
2023-02-13T16:01:53.531Z,5.53
2023-02-13T16:04:21.341Z,5.80
2023-02-13T16:06:51.191Z,11.60
2023-02-13T16:09:30.759Z,6.17
2023-02-13T16:12:22.914Z,8.27
2023-02-13T16:14:55.066Z,6.40
2023-02-13T16:17:28.236Z,8.20
2023-02-13T16:19:59.725Z,7.67
2023-02-13T16:22:39.174Z,8.43
2023-02-13T16:25:11.985Z,8.73
2023-02-13T16:27:48.886Z,7.70
2023-02-13T16:30:28.551Z,5.40
2023-02-13T16:33:14.692Z,6.47
2023-02-13T16:35:43.943Z,6.47
2023-02-13T16:38:40.598Z,5.60
2023-02-13T16:41:19.834Z,5.53
2023-02-13T16:44:00.494Z,5.50
2023-02-13T16:46:27.564Z,5.30
2023-02-13T16:48:57.201Z,5.10
2023-02-13T16:51:30.181Z,6.63
2023-02-13T16:54:03.862Z,5.90
2023-02-13T16:57:06.349Z,6.17
2023-02-13T16:59:56.186Z,7.00
2023-02-13T17:02:38.087Z,12.77
2023-02-13T17:05:08.162Z,21.07
2023-02-13T17:07:39.379Z,16.97
2023-02-13T17:10:21.750Z,8.80
2023-02-13T17:12:50.733Z,8.87
2023-02-13T17:15:21.566Z,9.37
2023-02-13T17:17:50.490Z,7.07
2023-02-13T17:20:23.879Z,6.63
2023-02-13T17:22:53.869Z,6.57
2023-02-13T17:25:28.075Z,8.67
2023-02-13T17:27:57.978Z,8.37
2023-02-13T17:30:30.795Z,7.30
2023-02-13T17:33:10.869Z,7.13
2023-02-13T17:35:37.907Z,13.73
2023-02-13T17:38:06.471Z,9.10
2023-02-13T17:40:33.426Z,8.30
2023-02-13T17:43:00.504Z,7.63
2023-02-13T17:45:31.384Z,7.57
2023-02-13T17:47:58.698Z,8.50
2023-02-13T17:50:27.131Z,6.90
2023-02-13T17:52:54.763Z,8.73
2023-02-13T17:55:24.574Z,8.53
2023-02-13T17:57:53.051Z,7.13
2023-02-13T18:00:21.163Z,7.63
2023-02-13T18:02:49.689Z,6.90
2023-02-13T18:05:18.601Z,7.33
2023-02-13T18:07:47.043Z,7.03
2023-02-13T18:10:17.117Z,6.60
2023-02-13T18:12:44.608Z,7.43
2023-02-13T18:15:12.621Z,10.37
2023-02-13T18:17:39.743Z,11.97
2023-02-13T18:20:08.617Z,8.70
2023-02-13T18:22:35.507Z,7.53
2023-02-13T18:25:02.700Z,7.30
2023-02-13T18:27:29.625Z,8.27
2023-02-13T18:29:57.473Z,8.87
2023-02-13T18:32:24.769Z,7.30
2023-02-13T18:34:51.967Z,9.43
2023-02-13T18:37:19.264Z,8.57
2023-02-13T18:39:46.231Z,10.50
2023-02-13T18:42:13.344Z,7.70
2023-02-13T18:44:41.315Z,9.03
2023-02-13T18:47:08.554Z,9.13
2023-02-13T18:49:35.552Z,7.90
2023-02-13T18:52:02.641Z,7.70
2023-02-13T18:54:30.090Z,7.43
2023-02-13T18:56:57.361Z,7.97
2023-02-13T18:59:24.349Z,8.53
2023-02-13T19:01:51.386Z,7.77
2023-02-13T19:04:18.423Z,7.13
2023-02-13T19:06:45.407Z,8.73
2023-02-13T19:09:12.582Z,7.50
2023-02-13T19:11:40.681Z,7.30
2023-02-13T19:14:07.809Z,7.73
2023-02-13T19:16:35.597Z,7.63
2023-02-13T19:19:05.096Z,8.10
2023-02-13T19:21:33.886Z,9.30
2023-02-13T19:24:03.699Z,8.00
2023-02-13T19:26:30.730Z,9.40
2023-02-13T19:28:58.556Z,12.17
2023-02-13T19:31:28.678Z,10.23
2023-02-13T19:33:56.263Z,10.97
2023-02-13T19:36:25.685Z,12.07
2023-02-13T19:39:05.085Z,14.77
2023-02-13T19:41:33.161Z,10.80
2023-02-13T19:44:01.057Z,10.60
2023-02-13T19:46:32.474Z,9.43
2023-02-13T19:49:03.127Z,13.67
2023-02-13T19:51:32.099Z,10.27
2023-02-13T19:54:04.727Z,10.13
2023-02-13T19:56:33.373Z,10.07
2023-02-13T19:59:00.302Z,8.50
2023-02-13T20:01:29.060Z,7.90
2023-02-13T20:03:56.829Z,7.93
2023-02-13T20:06:28.191Z,7.87
2023-02-13T20:08:58.030Z,8.23
2023-02-13T20:11:25.529Z,10.27
2023-02-13T20:13:55.478Z,10.40
2023-02-13T20:16:23.146Z,8.87
2023-02-13T20:18:50.365Z,11.13
2023-02-13T20:21:18.234Z,9.93
2023-02-13T20:23:49.278Z,11.63
2023-02-13T20:26:16.639Z,11.30
2023-02-13T20:28:45.849Z,9.50
2023-02-13T20:31:18.422Z,9.33
2023-02-13T20:33:45.973Z,8.07
2023-02-13T20:36:24.724Z,8.43
2023-02-13T20:38:56.788Z,10.70
2023-02-13T20:41:26.582Z,12.10
2023-02-13T20:43:57.811Z,13.23
2023-02-13T20:46:24.858Z,13.03
2023-02-13T20:48:51.874Z,12.63
2023-02-13T20:51:18.867Z,10.43
2023-02-13T20:53:46.955Z,12.53
2023-02-13T20:56:13.842Z,12.00
2023-02-13T20:58:42.570Z,11.77
2023-02-13T21:01:14.514Z,12.47
2023-02-13T21:03:42.665Z,11.53
2023-02-13T21:06:10.269Z,10.87
2023-02-13T21:08:37.562Z,15.07
2023-02-13T21:11:06.646Z,13.30
2023-02-13T21:13:35.268Z,13.80
2023-02-13T21:16:15.064Z,13.27
2023-02-13T21:18:43.202Z,16.40
2023-02-13T21:21:11.607Z,13.47
2023-02-13T21:23:39.475Z,16.23
2023-02-13T21:26:12.730Z,16.60
2023-02-13T21:28:40.831Z,15.03
2023-02-13T21:31:29.300Z,14.40
2023-02-13T21:34:07.570Z,15.10
2023-02-13T21:36:36.119Z,13.03
2023-02-13T21:39:04.144Z,13.80
2023-02-13T21:41:31.102Z,12.43
2023-02-13T21:43:58.002Z,11.20
2023-02-13T21:46:27.845Z,11.87
2023-02-13T21:48:57.165Z,14.07
2023-02-13T21:51:25.541Z,19.27
2023-02-13T21:53:53.604Z,15.93
2023-02-13T21:56:23.063Z,19.70
2023-02-13T21:58:50.569Z,13.47
2023-02-13T22:01:27.421Z,11.23
2023-02-13T22:04:00.194Z,12.30
2023-02-13T22:06:29.420Z,11.90
2023-02-13T22:09:06.094Z,11.30
2023-02-13T22:11:33.488Z,14.13
2023-02-13T22:14:02.783Z,12.73
2023-02-13T22:16:31.648Z,12.27
2023-02-13T22:18:59.730Z,11.67
2023-02-13T22:21:28.684Z,14.30
2023-02-13T22:23:56.172Z,14.50
2023-02-13T22:26:26.125Z,13.67
2023-02-13T22:28:54.306Z,15.37
2023-02-13T22:31:25.162Z,14.63
2023-02-13T22:34:03.009Z,13.70
2023-02-13T22:36:38.590Z,13.20
2023-02-13T22:39:06.588Z,17.10
2023-02-13T22:41:33.647Z,15.17
2023-02-13T22:44:00.571Z,12.33
2023-02-13T22:46:29.857Z,13.93
2023-02-13T22:48:57.417Z,15.07
2023-02-13T22:51:28.076Z,15.17
2023-02-13T22:53:59.026Z,15.53
2023-02-13T22:56:28.753Z,13.57
2023-02-13T22:58:56.125Z,14.57
2023-02-13T23:01:25.253Z,17.97
2023-02-13T23:03:52.456Z,26.23
2023-02-13T23:06:19.811Z,14.80
2023-02-13T23:08:48.942Z,30.60
2023-02-13T23:11:35.632Z,28.57
2023-02-13T23:14:04.414Z,15.30
2023-02-13T23:16:51.729Z,17.40
2023-02-13T23:19:19.139Z,21.90
2023-02-13T23:21:46.377Z,18.27
2023-02-13T23:24:13.266Z,23.03
2023-02-13T23:26:40.156Z,20.70
2023-02-13T23:29:07.396Z,29.17
2023-02-13T23:31:34.447Z,21.53
2023-02-13T23:34:01.459Z,22.07
2023-02-13T23:36:28.638Z,22.70
2023-02-13T23:38:55.831Z,17.83
2023-02-13T23:41:22.736Z,24.80
2023-02-13T23:43:49.698Z,22.73
2023-02-13T23:46:16.748Z,18.90
2023-02-13T23:48:45.824Z,18.00
2023-02-13T23:51:12.925Z,15.67
2023-02-13T23:53:39.952Z,12.50
2023-02-13T23:56:07.473Z,19.40
2023-02-13T23:58:34.615Z,8.67
